createdAt,value
2016-04-27T00:00:12.716Z,988.6
2016-04-27T00:01:12.749Z,988.64
2016-04-27T00:02:12.752Z,988.66
2016-04-27T00:03:12.771Z,988.6
2016-04-27T00:04:12.790Z,988.62
2016-04-27T00:05:12.807Z,988.62
2016-04-27T00:06:12.857Z,988.53
2016-04-27T00:07:12.843Z,988.57
2016-04-27T00:08:12.863Z,988.55
2016-04-27T00:09:12.881Z,988.54
2016-04-27T00:10:12.898Z,988.53
2016-04-27T00:11:12.917Z,988.54
2016-04-27T00:12:12.936Z,988.57
2016-04-27T00:13:12.954Z,988.52
2016-04-27T00:14:12.972Z,988.54
2016-04-27T00:15:12.990Z,988.46
2016-04-27T00:16:13.024Z,988.45
2016-04-27T00:17:13.027Z,988.54
2016-04-27T00:18:13.045Z,988.55
2016-04-27T00:19:13.063Z,988.59
2016-04-27T00:20:13.083Z,988.57
2016-04-27T00:21:14.147Z,988.54
2016-04-27T00:22:13.119Z,988.55
2016-04-27T00:23:13.137Z,988.53
2016-04-27T00:24:13.155Z,988.55
2016-04-27T00:25:13.174Z,988.54
2016-04-27T00:26:13.176Z,988.58
2016-04-27T00:27:13.210Z,988.61
2016-04-27T00:28:13.229Z,988.6
2016-04-27T00:29:13.232Z,988.61
2016-04-27T00:30:13.265Z,988.61
2016-04-27T00:31:13.268Z,988.65
2016-04-27T00:32:13.286Z,988.63
2016-04-27T00:33:13.305Z,988.67
2016-04-27T00:34:13.323Z,988.63
2016-04-27T00:35:13.341Z,988.7
2016-04-27T00:36:13.359Z,988.68
2016-04-27T00:37:15.753Z,988.67
2016-04-27T00:38:13.396Z,988.7
2016-04-27T00:39:13.414Z,988.69
2016-04-27T00:40:13.435Z,988.72
2016-04-27T00:41:13.441Z,988.71
2016-04-27T00:42:13.478Z,988.73
2016-04-27T00:43:13.486Z,988.72
2016-04-27T00:44:13.502Z,988.72
2016-04-27T00:45:13.512Z,988.72
2016-04-27T00:46:13.530Z,988.74
2016-04-27T00:47:13.564Z,988.75
2016-04-27T00:48:13.567Z,988.73
2016-04-27T00:49:24.835Z,988.7
2016-04-27T00:50:13.604Z,988.76
2016-04-27T00:51:13.622Z,988.73
2016-04-27T00:52:13.640Z,988.74
2016-04-27T00:53:13.673Z,988.72
2016-04-27T00:54:13.675Z,988.78
2016-04-27T00:55:13.711Z,988.74
2016-04-27T00:56:13.714Z,988.72
2016-04-27T00:57:13.731Z,988.69
2016-04-27T00:58:13.749Z,988.78
2016-04-27T00:59:13.769Z,988.76
2016-04-27T01:00:13.786Z,988.77
2016-04-27T01:01:13.805Z,988.79
2016-04-27T01:02:13.823Z,988.77
2016-04-27T01:03:13.857Z,988.77
2016-04-27T01:04:13.875Z,988.8
2016-04-27T01:05:13.893Z,988.82
2016-04-27T01:06:13.897Z,988.8
2016-04-27T01:07:13.915Z,988.77
2016-04-27T01:08:13.932Z,988.78
2016-04-27T01:09:13.952Z,988.78
2016-04-27T01:10:13.954Z,988.79
2016-04-27T01:11:13.971Z,988.78
2016-04-27T01:12:13.990Z,988.82
2016-04-27T01:13:14.009Z,988.81
2016-04-27T01:14:14.027Z,988.84
2016-04-27T01:15:14.045Z,988.81
2016-04-27T01:16:14.064Z,988.82
2016-04-27T01:17:14.082Z,988.81
2016-04-27T01:18:14.115Z,988.81
2016-04-27T01:19:14.118Z,988.81
2016-04-27T01:20:14.137Z,988.77
2016-04-27T01:21:14.795Z,988.73
2016-04-27T01:22:14.179Z,988.78
2016-04-27T01:23:14.199Z,988.76
2016-04-27T01:24:14.202Z,988.74
2016-04-27T01:25:14.236Z,988.74
2016-04-27T01:26:14.239Z,988.78
2016-04-27T01:27:14.257Z,988.75
2016-04-27T01:28:14.275Z,988.79
2016-04-27T01:29:14.294Z,988.76
2016-04-27T01:30:14.313Z,988.79
2016-04-27T01:31:14.330Z,988.76
2016-04-27T01:32:14.349Z,988.78
2016-04-27T01:33:14.367Z,988.78
2016-04-27T01:34:14.386Z,988.77
2016-04-27T01:35:14.404Z,988.76
2016-04-27T01:36:14.422Z,988.78
2016-04-27T01:37:14.441Z,988.83
2016-04-27T01:38:14.490Z,988.86
2016-04-27T01:39:14.477Z,988.83
2016-04-27T01:40:14.495Z,988.87
2016-04-27T01:41:14.498Z,988.87
2016-04-27T01:42:14.516Z,988.88
2016-04-27T01:43:14.550Z,988.84
2016-04-27T01:44:14.553Z,988.84
2016-04-27T01:45:14.571Z,988.83
2016-04-27T01:46:14.590Z,988.85
2016-04-27T01:47:14.608Z,988.84
2016-04-27T01:48:14.626Z,988.83
2016-04-27T01:49:14.645Z,988.67
2016-04-27T01:50:14.664Z,988.71
2016-04-27T01:51:14.682Z,988.74
2016-04-27T01:52:14.701Z,988.7
2016-04-27T01:53:14.719Z,988.72
2016-04-27T01:54:14.737Z,988.75
2016-04-27T01:55:14.755Z,988.72
2016-04-27T01:56:14.774Z,988.76
2016-04-27T01:57:14.792Z,988.76
2016-04-27T01:58:14.810Z,988.74
2016-04-27T01:59:14.828Z,988.73
2016-04-27T02:00:14.847Z,988.72
2016-04-27T02:01:14.850Z,988.77
2016-04-27T02:02:14.868Z,988.77
2016-04-27T02:03:14.902Z,988.75
2016-04-27T02:04:14.905Z,988.78
2016-04-27T02:05:14.923Z,988.76
2016-04-27T02:06:14.942Z,988.85
2016-04-27T02:07:14.975Z,988.78
2016-04-27T02:08:14.978Z,988.9
2016-04-27T02:09:14.997Z,988.9
2016-04-27T02:10:15.015Z,988.86
2016-04-27T02:11:15.033Z,988.8
2016-04-27T02:12:15.051Z,988.85
2016-04-27T02:13:15.069Z,988.87
2016-04-27T02:14:15.088Z,988.82
2016-04-27T02:15:15.105Z,988.88
2016-04-27T02:16:15.124Z,988.85
2016-04-27T02:17:15.143Z,988.94
2016-04-27T02:18:15.161Z,988.91
2016-04-27T02:19:15.163Z,988.84
2016-04-27T02:20:15.182Z,988.81
2016-04-27T02:21:15.216Z,988.84
2016-04-27T02:22:15.219Z,988.88
2016-04-27T02:23:15.252Z,988.9
2016-04-27T02:24:15.255Z,988.89
2016-04-27T02:25:15.274Z,988.83
2016-04-27T02:26:15.293Z,988.89
2016-04-27T02:27:15.309Z,988.91
2016-04-27T02:28:15.328Z,988.92
2016-04-27T02:29:15.348Z,988.89
2016-04-27T02:30:15.365Z,988.94
2016-04-27T02:31:15.383Z,988.96
2016-04-27T02:32:15.401Z,988.99
2016-04-27T02:33:15.420Z,988.96
2016-04-27T02:34:15.439Z,988.97
2016-04-27T02:35:15.456Z,989.01
2016-04-27T02:36:15.460Z,988.97
2016-04-27T02:37:15.493Z,988.98
2016-04-27T02:38:15.497Z,988.96
2016-04-27T02:39:15.514Z,988.99
2016-04-27T02:40:15.533Z,988.94
2016-04-27T02:41:15.551Z,988.94
2016-04-27T02:42:15.577Z,988.95
2016-04-27T02:43:15.637Z,988.94
2016-04-27T02:44:15.696Z,988.98
2016-04-27T02:45:15.758Z,988.98
2016-04-27T02:46:15.818Z,988.91
2016-04-27T02:47:15.872Z,988.97
2016-04-27T02:48:15.907Z,988.98
2016-04-27T02:49:15.940Z,988.98
2016-04-27T02:50:15.975Z,989.07
2016-04-27T02:51:16.133Z,989.04
2016-04-27T02:52:16.039Z,989
2016-04-27T02:53:16.048Z,989
2016-04-27T02:54:16.102Z,988.98
2016-04-27T02:55:16.111Z,988.99
2016-04-27T02:56:16.111Z,988.96
2016-04-27T02:57:16.134Z,988.98
2016-04-27T02:58:16.157Z,988.96
2016-04-27T02:59:16.177Z,988.95
2016-04-27T03:00:16.199Z,988.94
2016-04-27T03:01:16.218Z,988.94
2016-04-27T03:02:16.238Z,988.94
2016-04-27T03:03:16.259Z,988.95
2016-04-27T03:04:16.277Z,988.97
2016-04-27T03:05:16.297Z,988.92
2016-04-27T03:06:16.315Z,988.98
2016-04-27T03:07:16.319Z,988.97
2016-04-27T03:08:16.338Z,988.94
2016-04-27T03:09:16.357Z,988.94
2016-04-27T03:10:16.376Z,989.01
2016-04-27T03:11:16.394Z,989.02
2016-04-27T03:12:16.413Z,989.02
2016-04-27T03:13:17.510Z,989.03
2016-04-27T03:14:16.451Z,989.01
2016-04-27T03:15:16.468Z,989.04
2016-04-27T03:16:16.486Z,989.07
2016-04-27T03:17:16.505Z,989.06
2016-04-27T03:18:16.508Z,989.07
2016-04-27T03:19:16.525Z,989.13
2016-04-27T03:20:16.544Z,989.16
2016-04-27T03:21:16.563Z,989.12
2016-04-27T03:22:16.581Z,989.08
2016-04-27T03:23:16.599Z,989.16
2016-04-27T03:24:16.617Z,989.09
2016-04-27T03:25:16.636Z,989.14
2016-04-27T03:26:16.655Z,989.12
2016-04-27T03:27:16.672Z,989.11
2016-04-27T03:28:16.690Z,989.12
2016-04-27T03:29:16.694Z,989.12
2016-04-27T03:30:16.712Z,989.09
2016-04-27T03:31:16.746Z,989.2
2016-04-27T03:32:16.749Z,989.24
2016-04-27T03:33:16.766Z,989.24
2016-04-27T03:34:16.785Z,989.15
2016-04-27T03:35:16.819Z,989.23
2016-04-27T03:36:17.603Z,989.17
2016-04-27T03:37:16.840Z,989.26
2016-04-27T03:38:16.859Z,989.23
2016-04-27T03:39:16.876Z,989.26
2016-04-27T03:40:16.895Z,989.21
2016-04-27T03:41:16.913Z,989.2
2016-04-27T03:42:16.931Z,989.22
2016-04-27T03:43:16.934Z,989.22
2016-04-27T03:44:16.953Z,989.21
2016-04-27T03:45:16.970Z,989.22
2016-04-27T03:46:16.989Z,989.2
2016-04-27T03:47:17.008Z,989.14
2016-04-27T03:48:17.026Z,989.19
2016-04-27T03:49:17.044Z,989.15
2016-04-27T03:50:17.062Z,989.18
2016-04-27T03:51:17.361Z,989.17
2016-04-27T03:52:17.084Z,989.12
2016-04-27T03:53:17.117Z,989.17
2016-04-27T03:54:17.120Z,989.23
2016-04-27T03:55:17.139Z,989.25
2016-04-27T03:56:17.157Z,989.3
2016-04-27T03:57:17.175Z,989.29
2016-04-27T03:58:17.193Z,989.31
2016-04-27T03:59:17.211Z,989.32
2016-04-27T04:00:17.230Z,989.32
2016-04-27T04:01:17.248Z,989.34
2016-04-27T04:02:17.251Z,989.34
2016-04-27T04:03:17.269Z,989.33
2016-04-27T04:04:17.288Z,989.36
2016-04-27T04:05:17.307Z,989.34
2016-04-27T04:06:17.325Z,989.35
2016-04-27T04:07:19.593Z,989.44
2016-04-27T04:08:17.361Z,989.48
2016-04-27T04:09:17.380Z,989.47
2016-04-27T04:10:17.399Z,989.45
2016-04-27T04:11:17.416Z,989.44
2016-04-27T04:12:17.436Z,989.45
2016-04-27T04:13:17.438Z,989.43
2016-04-27T04:14:17.456Z,989.48
2016-04-27T04:15:17.474Z,989.45
2016-04-27T04:16:17.493Z,989.49
2016-04-27T04:17:17.510Z,989.56
2016-04-27T04:18:17.530Z,989.51
2016-04-27T04:19:17.548Z,989.49
2016-04-27T04:20:17.566Z,989.52
2016-04-27T04:21:17.585Z,989.51
2016-04-27T04:22:17.622Z,989.53
2016-04-27T04:23:17.641Z,989.51
2016-04-27T04:24:17.643Z,989.47
2016-04-27T04:25:17.661Z,989.52
2016-04-27T04:26:17.679Z,989.45
2016-04-27T04:27:17.683Z,989.55
2016-04-27T04:28:17.701Z,989.45
2016-04-27T04:29:17.719Z,989.5
2016-04-27T04:30:17.738Z,989.54
2016-04-27T04:31:17.741Z,989.49
2016-04-27T04:32:17.758Z,989.52
2016-04-27T04:33:17.777Z,989.5
2016-04-27T04:34:17.795Z,989.51
2016-04-27T04:35:17.813Z,989.5
2016-04-27T04:36:17.831Z,989.5
2016-04-27T04:37:17.850Z,989.52
2016-04-27T04:38:17.868Z,989.47
2016-04-27T04:39:17.887Z,989.51
2016-04-27T04:40:17.889Z,989.5
2016-04-27T04:41:17.907Z,989.5
2016-04-27T04:42:17.926Z,989.53
2016-04-27T04:43:17.944Z,989.59
2016-04-27T04:44:17.963Z,989.53
2016-04-27T04:45:17.981Z,989.57
2016-04-27T04:46:18.000Z,989.53
2016-04-27T04:47:18.017Z,989.54
2016-04-27T04:48:18.036Z,989.53
2016-04-27T04:49:18.054Z,989.58
2016-04-27T04:50:18.072Z,989.6
2016-04-27T04:51:18.075Z,989.58
2016-04-27T04:52:18.094Z,989.57
2016-04-27T04:53:18.111Z,989.6
2016-04-27T04:54:18.131Z,989.66
2016-04-27T04:55:18.149Z,989.65
2016-04-27T04:56:18.166Z,989.63
2016-04-27T04:57:18.185Z,989.66
2016-04-27T04:58:18.203Z,989.65
2016-04-27T04:59:18.221Z,989.66
2016-04-27T05:00:18.240Z,989.64
2016-04-27T05:01:18.244Z,989.64
2016-04-27T05:02:18.308Z,989.6
2016-04-27T05:03:18.280Z,989.63
2016-04-27T05:04:18.329Z,989.65
2016-04-27T05:05:18.316Z,989.69
2016-04-27T05:06:18.335Z,989.72
2016-04-27T05:07:18.352Z,989.65
2016-04-27T05:08:18.371Z,989.63
2016-04-27T05:09:18.389Z,989.65
2016-04-27T05:10:18.407Z,989.62
2016-04-27T05:11:18.410Z,989.69
2016-04-27T05:12:18.445Z,989.71
2016-04-27T05:13:18.448Z,989.72
2016-04-27T05:14:18.465Z,989.64
2016-04-27T05:15:18.484Z,989.64
2016-04-27T05:16:18.501Z,989.66
2016-04-27T05:17:18.520Z,989.64
2016-04-27T05:18:18.538Z,989.61
2016-04-27T05:19:18.556Z,989.61
2016-04-27T05:20:18.575Z,989.64
2016-04-27T05:21:18.594Z,989.65
2016-04-27T05:22:18.612Z,989.62
2016-04-27T05:23:18.630Z,989.64
2016-04-27T05:24:18.633Z,989.68
2016-04-27T05:25:18.650Z,989.7
2016-04-27T05:26:18.669Z,989.68
2016-04-27T05:27:18.688Z,989.66
2016-04-27T05:28:18.705Z,989.62
2016-04-27T05:29:18.725Z,989.72
2016-04-27T05:30:18.743Z,989.71
2016-04-27T05:31:18.761Z,989.76
2016-04-27T05:32:18.780Z,989.75
2016-04-27T05:33:18.813Z,989.74
2016-04-27T05:34:18.816Z,989.73
2016-04-27T05:35:18.834Z,989.76
2016-04-27T05:36:18.837Z,989.8
2016-04-27T05:37:19.246Z,989.85
2016-04-27T05:38:18.874Z,989.79
2016-04-27T05:39:18.892Z,989.89
2016-04-27T05:40:18.910Z,989.84
2016-04-27T05:41:18.929Z,989.85
2016-04-27T05:42:18.946Z,989.91
2016-04-27T05:43:18.965Z,989.9
2016-04-27T05:44:18.983Z,989.94
2016-04-27T05:45:19.001Z,989.92
2016-04-27T05:46:19.020Z,989.97
2016-04-27T05:47:19.039Z,989.97
2016-04-27T05:48:19.042Z,989.95
2016-04-27T05:49:19.059Z,990.01
2016-04-27T05:50:19.078Z,990.03
2016-04-27T05:51:19.095Z,990.06
2016-04-27T05:52:19.223Z,990.02
2016-04-27T05:53:19.133Z,990.07
2016-04-27T05:54:19.151Z,990.1
2016-04-27T05:55:19.169Z,990.07
2016-04-27T05:56:19.188Z,990.11
2016-04-27T05:57:19.206Z,990.16
2016-04-27T05:58:19.225Z,990.15
2016-04-27T05:59:19.242Z,990.08
2016-04-27T06:00:19.261Z,990.13
2016-04-27T06:01:19.279Z,990.17
2016-04-27T06:02:19.297Z,990.16
2016-04-27T06:03:19.316Z,990.2
2016-04-27T06:04:19.319Z,990.24
2016-04-27T06:05:19.337Z,990.22
2016-04-27T06:06:19.355Z,990.21
2016-04-27T06:07:19.373Z,990.23
2016-04-27T06:08:19.391Z,990.19
2016-04-27T06:09:19.410Z,990.26
2016-04-27T06:10:19.428Z,990.28
2016-04-27T06:11:19.447Z,990.26
2016-04-27T06:12:19.465Z,990.3
2016-04-27T06:13:19.484Z,990.24
2016-04-27T06:14:19.502Z,990.29
2016-04-27T06:15:19.520Z,990.23
2016-04-27T06:16:19.554Z,990.36
2016-04-27T06:17:19.556Z,990.24
2016-04-27T06:18:19.590Z,990.31
2016-04-27T06:19:19.593Z,990.3
2016-04-27T06:20:19.611Z,990.32
2016-04-27T06:21:19.631Z,990.4
2016-04-27T06:22:19.648Z,990.33
2016-04-27T06:23:19.667Z,990.39
2016-04-27T06:24:19.670Z,990.36
2016-04-27T06:25:19.687Z,990.39
2016-04-27T06:26:19.706Z,990.41
2016-04-27T06:27:19.724Z,990.42
2016-04-27T06:28:19.742Z,990.3
2016-04-27T06:29:19.761Z,990.47
2016-04-27T06:30:19.779Z,990.37
2016-04-27T06:31:19.797Z,990.38
2016-04-27T06:32:19.816Z,990.36
2016-04-27T06:33:19.833Z,990.34
2016-04-27T06:34:19.852Z,990.4
2016-04-27T06:35:19.871Z,990.41
2016-04-27T06:36:19.888Z,990.37
2016-04-27T06:37:19.907Z,990.38
2016-04-27T06:38:19.925Z,990.46
2016-04-27T06:39:19.944Z,990.29
2016-04-27T06:40:19.962Z,990.42
2016-04-27T06:41:19.980Z,990.39
2016-04-27T06:42:19.999Z,990.41
2016-04-27T06:43:20.017Z,990.36
2016-04-27T06:44:20.035Z,990.42
2016-04-27T06:45:20.054Z,990.4
2016-04-27T06:46:20.072Z,990.38
2016-04-27T06:47:20.090Z,990.44
2016-04-27T06:48:20.093Z,990.47
2016-04-27T06:49:20.112Z,990.43
2016-04-27T06:50:20.130Z,990.38
2016-04-27T06:51:20.164Z,990.44
2016-04-27T06:52:20.166Z,990.42
2016-04-27T06:53:20.185Z,990.43
2016-04-27T06:54:20.203Z,990.46
2016-04-27T06:55:20.222Z,990.38
2016-04-27T06:56:20.239Z,990.4
2016-04-27T06:57:20.258Z,990.39
2016-04-27T06:58:20.276Z,990.43
2016-04-27T06:59:20.295Z,990.51
2016-04-27T07:00:20.313Z,990.44
2016-04-27T07:01:20.331Z,990.42
2016-04-27T07:02:20.350Z,990.46
2016-04-27T07:03:20.368Z,990.41
2016-04-27T07:04:20.386Z,990.52
2016-04-27T07:05:20.404Z,990.5
2016-04-27T07:06:20.422Z,990.55
2016-04-27T07:07:20.441Z,990.56
2016-04-27T07:08:20.460Z,990.52
2016-04-27T07:09:20.478Z,990.4
2016-04-27T07:10:20.496Z,990.51
2016-04-27T07:11:20.515Z,990.52
2016-04-27T07:12:20.533Z,990.59
2016-04-27T07:13:20.551Z,990.62
2016-04-27T07:14:20.569Z,990.55
2016-04-27T07:15:20.587Z,990.5
2016-04-27T07:16:20.606Z,990.63
2016-04-27T07:17:20.624Z,990.53
2016-04-27T07:18:20.643Z,990.61
2016-04-27T07:19:20.662Z,990.52
2016-04-27T07:20:20.679Z,990.59
2016-04-27T07:21:20.698Z,990.54
2016-04-27T07:22:22.622Z,990.6
2016-04-27T07:23:20.718Z,990.59
2016-04-27T07:24:20.752Z,990.58
2016-04-27T07:25:20.771Z,990.73
2016-04-27T07:26:20.789Z,990.64
2016-04-27T07:27:20.807Z,990.66
2016-04-27T07:28:20.826Z,990.6
2016-04-27T07:29:20.828Z,990.55
2016-04-27T07:30:20.846Z,990.55
2016-04-27T07:31:20.865Z,990.75
2016-04-27T07:32:20.899Z,990.68
2016-04-27T07:33:20.917Z,990.7
2016-04-27T07:34:20.920Z,990.79
2016-04-27T07:35:20.954Z,990.74
2016-04-27T07:36:20.972Z,990.79
2016-04-27T07:37:20.975Z,990.78
2016-04-27T07:38:20.993Z,990.72
2016-04-27T07:39:21.011Z,990.83
2016-04-27T07:40:21.030Z,990.8
2016-04-27T07:41:21.063Z,990.86
2016-04-27T07:42:21.066Z,990.83
2016-04-27T07:43:21.085Z,990.81
2016-04-27T07:44:21.104Z,990.86
2016-04-27T07:45:21.137Z,990.84
2016-04-27T07:46:21.139Z,990.83
2016-04-27T07:47:21.158Z,990.77
2016-04-27T07:48:21.193Z,990.86
2016-04-27T07:49:21.195Z,990.83
2016-04-27T07:50:21.213Z,990.76
2016-04-27T07:51:21.231Z,990.96
2016-04-27T07:52:21.265Z,990.93
2016-04-27T07:53:22.971Z,990.92
2016-04-27T07:54:21.301Z,990.95
2016-04-27T07:55:21.320Z,990.97
2016-04-27T07:56:21.323Z,990.98
2016-04-27T07:57:21.356Z,990.94
2016-04-27T07:58:21.375Z,990.98
2016-04-27T07:59:21.377Z,990.93
2016-04-27T08:00:21.411Z,990.99
2016-04-27T08:01:21.430Z,990.94
2016-04-27T08:02:21.433Z,991.02
2016-04-27T08:03:21.467Z,991
2016-04-27T08:04:21.485Z,991
2016-04-27T08:05:21.503Z,990.97
2016-04-27T08:06:21.521Z,990.93
2016-04-27T08:07:21.541Z,991
2016-04-27T08:08:21.558Z,990.97
2016-04-27T08:09:21.577Z,991.03
2016-04-27T08:10:21.594Z,990.99
2016-04-27T08:11:21.613Z,990.98
2016-04-27T08:12:21.632Z,990.98
2016-04-27T08:13:21.649Z,991.03
2016-04-27T08:14:21.668Z,991.03
2016-04-27T08:15:21.687Z,990.91
2016-04-27T08:16:21.705Z,990.93
2016-04-27T08:17:21.723Z,991.07
2016-04-27T08:18:21.741Z,991.03
2016-04-27T08:19:21.759Z,991.09
2016-04-27T08:20:21.779Z,991.02
2016-04-27T08:21:21.796Z,991
2016-04-27T08:22:21.940Z,991.05
2016-04-27T08:23:22.787Z,990.98
2016-04-27T08:24:21.851Z,991.03
2016-04-27T08:25:21.870Z,991.15
2016-04-27T08:26:21.887Z,991.09
2016-04-27T08:27:21.906Z,991.09
2016-04-27T08:28:21.924Z,991.08
2016-04-27T08:29:21.943Z,991.12
2016-04-27T08:30:21.961Z,991.11
2016-04-27T08:31:21.980Z,991.18
2016-04-27T08:32:21.995Z,991.17
2016-04-27T08:33:22.013Z,991.1
2016-04-27T08:34:22.032Z,991.1
2016-04-27T08:35:22.066Z,991.23
2016-04-27T08:36:22.083Z,991.2
2016-04-27T08:37:22.103Z,991.19
2016-04-27T08:38:22.402Z,991.11
2016-04-27T08:39:22.139Z,991.1
2016-04-27T08:40:22.157Z,991.14
2016-04-27T08:41:22.175Z,991.17
2016-04-27T08:42:22.194Z,991.24
2016-04-27T08:43:22.212Z,991.17
2016-04-27T08:44:22.230Z,991.28
2016-04-27T08:45:22.248Z,991.24
2016-04-27T08:46:22.268Z,991.25
2016-04-27T08:47:22.285Z,991.37
2016-04-27T08:48:22.303Z,991.36
2016-04-27T08:49:22.322Z,991.31
2016-04-27T08:50:22.340Z,991.3
2016-04-27T08:51:22.359Z,991.38
2016-04-27T08:52:22.377Z,991.34
2016-04-27T08:53:22.754Z,991.42
2016-04-27T08:54:22.414Z,991.31
2016-04-27T08:55:22.431Z,991.33
2016-04-27T08:56:22.466Z,991.35
2016-04-27T08:57:22.468Z,991.36
2016-04-27T08:58:22.486Z,991.33
2016-04-27T08:59:22.506Z,991.34
2016-04-27T09:00:22.539Z,991.42
2016-04-27T09:01:22.558Z,991.38
2016-04-27T09:02:22.575Z,991.38
2016-04-27T09:03:22.594Z,991.39
2016-04-27T09:04:22.628Z,991.36
2016-04-27T09:05:22.647Z,991.33
2016-04-27T09:06:22.649Z,991.41
2016-04-27T09:07:22.683Z,991.34
2016-04-27T09:08:22.686Z,991.34
2016-04-27T09:09:22.719Z,991.41
2016-04-27T09:10:22.738Z,991.3
2016-04-27T09:11:22.756Z,991.37
2016-04-27T09:12:22.775Z,991.33
2016-04-27T09:13:22.793Z,991.33
2016-04-27T09:14:22.810Z,991.35
2016-04-27T09:15:22.829Z,991.37
2016-04-27T09:16:22.863Z,991.47
2016-04-27T09:17:22.851Z,991.47
2016-04-27T09:18:25.885Z,991.29
2016-04-27T09:19:22.887Z,991.38
2016-04-27T09:20:22.921Z,991.33
2016-04-27T09:21:22.940Z,991.35
2016-04-27T09:22:23.364Z,991.41
2016-04-27T09:23:22.976Z,991.35
2016-04-27T09:24:22.995Z,991.26
2016-04-27T09:25:23.012Z,991.31
2016-04-27T09:26:23.031Z,991.25
2016-04-27T09:27:23.048Z,991.3
2016-04-27T09:28:23.068Z,991.28
2016-04-27T09:29:23.086Z,991.31
2016-04-27T09:30:23.104Z,991.49
2016-04-27T09:31:23.122Z,991.41
2016-04-27T09:32:23.141Z,991.42
2016-04-27T09:33:23.159Z,991.4
2016-04-27T09:34:23.178Z,991.4
2016-04-27T09:35:23.211Z,991.38
2016-04-27T09:36:23.214Z,991.33
2016-04-27T09:37:23.248Z,991.32
2016-04-27T09:38:23.266Z,991.4
2016-04-27T09:39:23.285Z,991.26
2016-04-27T09:40:23.302Z,991.35
2016-04-27T09:41:23.322Z,991.33
2016-04-27T09:42:23.339Z,991.4
2016-04-27T09:43:23.358Z,991.41
2016-04-27T09:44:23.377Z,991.44
2016-04-27T09:45:23.394Z,991.38
2016-04-27T09:46:23.413Z,991.3
2016-04-27T09:47:23.432Z,991.47
2016-04-27T09:48:23.449Z,991.39
2016-04-27T09:49:23.468Z,991.43
2016-04-27T09:50:23.486Z,991.4
2016-04-27T09:51:23.521Z,991.36
2016-04-27T09:52:23.710Z,991.4
2016-04-27T09:53:23.557Z,991.4
2016-04-27T09:54:23.576Z,991.42
2016-04-27T09:55:23.593Z,991.48
2016-04-27T09:56:23.611Z,991.57
2016-04-27T09:57:23.630Z,991.41
2016-04-27T09:58:23.648Z,991.51
2016-04-27T09:59:23.667Z,991.58
2016-04-27T10:00:23.685Z,991.55
2016-04-27T10:01:23.719Z,991.52
2016-04-27T10:02:23.753Z,991.58
2016-04-27T10:03:23.756Z,991.57
2016-04-27T10:04:23.773Z,991.54
2016-04-27T10:05:23.792Z,991.64
2016-04-27T10:06:23.826Z,991.64
2016-04-27T10:07:23.829Z,991.7
2016-04-27T10:08:25.534Z,991.61
2016-04-27T10:09:23.865Z,991.68
2016-04-27T10:10:23.884Z,991.62
2016-04-27T10:11:23.902Z,991.64
2016-04-27T10:12:23.919Z,991.66
2016-04-27T10:13:23.955Z,991.59
2016-04-27T10:14:23.972Z,991.6
2016-04-27T10:15:23.991Z,991.69
2016-04-27T10:16:24.009Z,991.73
2016-04-27T10:17:24.028Z,991.7
2016-04-27T10:18:24.046Z,991.7
2016-04-27T10:19:24.064Z,991.69
2016-04-27T10:20:24.083Z,991.68
2016-04-27T10:21:24.101Z,991.73
2016-04-27T10:22:24.186Z,991.69
2016-04-27T10:23:24.155Z,991.81
2016-04-27T10:24:24.173Z,991.77
2016-04-27T10:25:24.191Z,991.94
2016-04-27T10:26:24.210Z,991.84
2016-04-27T10:27:24.244Z,991.85
2016-04-27T10:28:24.248Z,991.89
2016-04-27T10:29:24.266Z,991.88
2016-04-27T10:30:24.284Z,991.84
2016-04-27T10:31:24.303Z,991.86
2016-04-27T10:32:24.336Z,991.86
2016-04-27T10:33:24.354Z,991.97
2016-04-27T10:34:24.373Z,991.91
2016-04-27T10:35:24.392Z,991.88
2016-04-27T10:36:24.425Z,991.99
2016-04-27T10:37:24.428Z,991.99
2016-04-27T10:38:24.447Z,991.92
2016-04-27T10:39:24.464Z,991.97
2016-04-27T10:40:24.483Z,991.92
2016-04-27T10:41:24.500Z,991.98
2016-04-27T10:42:24.536Z,991.8
2016-04-27T10:43:24.553Z,991.9
2016-04-27T10:44:24.572Z,991.89
2016-04-27T10:45:25.824Z,991.84
2016-04-27T10:46:24.608Z,991.89
2016-04-27T10:47:24.627Z,991.95
2016-04-27T10:48:24.661Z,991.83
2016-04-27T10:49:24.679Z,991.87
2016-04-27T10:50:24.697Z,991.99
2016-04-27T10:51:24.716Z,991.88
2016-04-27T10:52:24.734Z,991.81
2016-04-27T10:53:24.752Z,991.92
2016-04-27T10:54:24.771Z,991.97
2016-04-27T10:55:24.789Z,991.97
2016-04-27T10:56:24.807Z,992.04
2016-04-27T10:57:24.840Z,991.91
2016-04-27T10:58:24.844Z,991.99
2016-04-27T10:59:24.878Z,991.96
2016-04-27T11:00:24.900Z,992.12
2016-04-27T11:01:24.918Z,992.03
2016-04-27T11:02:24.936Z,992.04
2016-04-27T11:03:24.955Z,992.03
2016-04-27T11:04:24.974Z,992.11
2016-04-27T11:05:24.992Z,992.23
2016-04-27T11:06:25.010Z,992.18
2016-04-27T11:07:25.027Z,992.08
2016-04-27T11:08:25.063Z,992.17
2016-04-27T11:09:25.080Z,992.18
2016-04-27T11:10:25.099Z,992.16
2016-04-27T11:11:25.118Z,992.13
2016-04-27T11:12:25.135Z,992.19
2016-04-27T11:13:25.154Z,992.21
2016-04-27T11:14:25.172Z,992.31
2016-04-27T11:15:25.206Z,992.16
2016-04-27T11:16:25.224Z,992.13
2016-04-27T11:17:25.242Z,992.29
2016-04-27T11:18:25.262Z,992.3
2016-04-27T11:19:25.279Z,992.29
2016-04-27T11:20:25.298Z,992.34
2016-04-27T11:21:25.331Z,992.24
2016-04-27T11:22:25.334Z,992.2
2016-04-27T11:23:25.368Z,992.39
2016-04-27T11:24:25.386Z,992.25
2016-04-27T11:25:25.405Z,992.24
2016-04-27T11:26:25.423Z,992.25
2016-04-27T11:27:25.441Z,992.24
2016-04-27T11:28:25.459Z,992.22
2016-04-27T11:29:25.478Z,992.3
2016-04-27T11:30:25.512Z,992.23
2016-04-27T11:31:25.531Z,992.23
2016-04-27T11:32:25.549Z,992.25
2016-04-27T11:33:25.567Z,992.39
2016-04-27T11:34:25.585Z,992.38
2016-04-27T11:35:25.603Z,992.36
2016-04-27T11:36:25.638Z,992.43
2016-04-27T11:37:25.656Z,992.36
2016-04-27T11:38:25.675Z,992.32
2016-04-27T11:39:25.693Z,992.48
2016-04-27T11:40:25.710Z,992.44
2016-04-27T11:41:25.744Z,992.5
2016-04-27T11:42:25.763Z,992.48
2016-04-27T11:43:25.766Z,992.5
2016-04-27T11:44:25.799Z,992.53
2016-04-27T11:45:25.818Z,992.45
2016-04-27T11:46:25.836Z,992.46
2016-04-27T11:47:25.854Z,992.48
2016-04-27T11:48:25.873Z,992.44
2016-04-27T11:49:25.918Z,992.47
2016-04-27T11:50:25.982Z,992.49
2016-04-27T11:51:26.045Z,992.47
2016-04-27T11:52:26.124Z,992.53
2016-04-27T11:53:26.843Z,992.51
2016-04-27T11:54:26.233Z,992.53
2016-04-27T11:55:26.268Z,992.58
2016-04-27T11:56:26.302Z,992.54
2016-04-27T11:57:26.336Z,992.69
2016-04-27T11:58:26.386Z,992.56
2016-04-27T11:59:26.398Z,992.61
2016-04-27T12:00:26.439Z,992.57
2016-04-27T12:01:26.462Z,992.49
2016-04-27T12:02:26.486Z,992.52
2016-04-27T12:03:26.510Z,992.56
2016-04-27T12:04:26.533Z,992.64
2016-04-27T12:05:26.554Z,992.6
2016-04-27T12:06:26.574Z,992.53
2016-04-27T12:07:26.594Z,992.58
2016-04-27T12:08:26.630Z,992.61
2016-04-27T12:09:26.650Z,992.49
2016-04-27T12:10:26.669Z,992.59
2016-04-27T12:11:26.689Z,992.62
2016-04-27T12:12:26.708Z,992.55
2016-04-27T12:13:26.726Z,992.62
2016-04-27T12:14:26.746Z,992.61
2016-04-27T12:15:26.765Z,992.59
2016-04-27T12:16:26.783Z,992.56
2016-04-27T12:17:26.802Z,992.6
2016-04-27T12:18:26.836Z,992.57
2016-04-27T12:19:26.854Z,992.58
2016-04-27T12:20:26.873Z,992.58
2016-04-27T12:21:26.891Z,992.63
2016-04-27T12:22:26.909Z,992.6
2016-04-27T12:23:27.115Z,992.6
2016-04-27T12:24:26.947Z,992.61
2016-04-27T12:25:26.964Z,992.63
2016-04-27T12:26:26.999Z,992.65
2016-04-27T12:27:27.016Z,992.65
2016-04-27T12:28:27.035Z,992.67
2016-04-27T12:29:27.053Z,992.65
2016-04-27T12:30:27.071Z,992.64
2016-04-27T12:31:27.090Z,992.68